Time;durP1;ratioP1;P1;durP2;ratioP2;P2;SDS_P1;SDS_P2;PMS_P1;PMS_P2;Temp;Humidity;BMP_temperature;BMP_pressure;BME280_temperature;BME280_humidity;BME280_pressure;Samples;Min_cycle;Max_cycle;Signal;HPM_P1;HPM_P2
2022/11/20 00:01:32;;;;;;;17.77;9.20;;;;;;;-1.90;100.00;101344.38;5013849;28;20040;-69
2022/11/20 00:03:58;;;;;;;22.17;9.63;;;;;;;-1.96;100.00;101350.75;5012617;28;20033;-67
2022/11/20 00:06:25;;;;;;;17.00;8.55;;;;;;;-2.01;100.00;101350.38;5012758;28;20026;-68
2022/11/20 00:08:53;;;;;;;20.10;9.38;;;;;;;-2.04;100.00;101347.59;5013773;28;20034;-68
2022/11/20 00:11:21;;;;;;;17.88;9.07;;;;;;;-1.99;100.00;101350.50;5021134;28;20152;-68
2022/11/20 00:13:49;;;;;;;16.45;8.43;;;;;;;-2.01;100.00;101352.97;5023448;28;20068;-68
2022/11/20 00:16:17;;;;;;;18.27;8.60;;;;;;;-1.97;100.00;101359.25;5013248;28;20029;-68
2022/11/20 00:18:43;;;;;;;17.20;9.38;;;;;;;-2.06;100.00;101356.91;5018732;28;20486;-68
2022/11/20 00:21:17;;;;;;;16.25;8.93;;;;;;;-2.09;100.00;101359.22;5026929;28;20060;-68
2022/11/20 00:23:43;;;;;;;18.33;10.25;;;;;;;-2.08;100.00;101351.59;5021666;28;20576;-67
2022/11/20 00:26:11;;;;;;;15.38;8.82;;;;;;;-2.17;100.00;101350.94;5026945;28;20025;-68
2022/11/20 00:28:36;;;;;;;17.33;9.88;;;;;;;-2.12;100.00;101341.84;5024615;28;20129;-68
2022/11/20 00:31:11;;;;;;;17.02;9.32;;;;;;;-2.05;100.00;101340.63;5024745;28;20508;-68
2022/11/20 00:33:37;;;;;;;17.30;9.32;;;;;;;-2.11;100.00;101341.06;5020846;28;20037;-68
2022/11/20 00:36:04;;;;;;;19.42;9.75;;;;;;;-2.16;100.00;101334.66;5032131;28;20100;-68
2022/11/20 00:38:31;;;;;;;17.85;9.70;;;;;;;-2.21;100.00;101341.16;5016277;28;20026;-68
2022/11/20 00:41:03;;;;;;;17.60;9.60;;;;;;;-2.27;100.00;101332.97;5015495;28;20100;-68
2022/11/20 00:43:28;;;;;;;16.95;8.75;;;;;;;-2.30;100.00;101331.03;5045881;28;20103;-68
2022/11/20 00:45:58;;;;;;;20.30;8.82;;;;;;;-2.30;100.00;101330.16;5015946;28;20025;-68
2022/11/20 00:48:24;;;;;;;15.27;9.18;;;;;;;-2.33;100.00;101322.16;5017037;28;20025;-69
2022/11/20 00:50:49;;;;;;;16.65;9.30;;;;;;;-2.34;100.00;101322.97;5025081;28;20033;-68
2022/11/20 00:53:14;;;;;;;17.25;9.98;;;;;;;-2.25;100.00;101316.84;5015484;28;20470;-68
2022/11/20 00:55:40;;;;;;;23.35;11.05;;;;;;;-2.30;100.00;101325.00;5017244;28;20029;-68
2022/11/20 00:58:05;;;;;;;19.80;9.80;;;;;;;-2.20;100.00;101330.06;5016971;28;20042;-68
2022/11/20 01:00:30;;;;;;;20.88;9.55;;;;;;;-2.17;100.00;101332.88;5023884;28;20072;-69
2022/11/20 01:02:56;;;;;;;20.33;9.70;;;;;;;-2.18;100.00;101332.75;5023291;28;20552;-70
2022/11/20 01:05:21;;;;;;;19.92;9.77;;;;;;;-2.28;100.00;101321.75;5033538;28;20040;-68
2022/11/20 01:07:46;;;;;;;19.13;9.35;;;;;;;-2.24;100.00;101317.72;5018165;28;20649;-67
2022/11/20 01:10:12;;;;;;;24.35;10.45;;;;;;;-2.27;100.00;101328.69;5019798;28;20373;-67
2022/11/20 01:12:37;;;;;;;19.15;10.43;;;;;;;-2.25;100.00;101328.81;5032293;28;20060;-68
2022/11/20 01:15:03;;;;;;;19.75;9.85;;;;;;;-2.27;100.00;101327.81;5014896;28;20071;-67
2022/11/20 01:17:28;;;;;;;18.13;9.52;;;;;;;-2.35;100.00;101318.59;5033144;28;20454;-68
2022/11/20 01:19:53;;;;;;;20.90;9.52;;;;;;;-2.27;100.00;101322.66;5026649;28;20037;-67
2022/11/20 01:22:19;;;;;;;15.82;8.55;;;;;;;-2.21;100.00;101328.28;5014978;28;20028;-68
2022/11/20 01:24:44;;;;;;;18.77;9.70;;;;;;;-2.22;100.00;101326.47;5029874;28;20056;-68
2022/11/20 01:27:09;;;;;;;17.15;8.70;;;;;;;-2.39;100.00;101310.63;5032072;28;20049;-68
2022/11/20 01:29:35;;;;;;;21.08;9.95;;;;;;;-2.40;100.00;101310.50;5027085;28;20092;-67
2022/11/20 01:32:00;;;;;;;17.05;9.75;;;;;;;-2.45;100.00;101312.72;5033444;28;20071;-67
2022/11/20 01:34:25;;;;;;;16.95;8.80;;;;;;;-2.48;100.00;101306.44;5019159;28;20110;-68
2022/11/20 01:36:53;;;;;;;18.55;9.27;;;;;;;-2.51;100.00;101309.66;5016616;28;20044;-67
2022/11/20 01:39:21;;;;;;;19.55;9.18;;;;;;;-2.47;100.00;101314.31;5032254;28;20083;-66
2022/11/20 01:44:58;;;;;;;18.15;9.32;;;;;;;-2.59;100.00;101303.94;5019640;28;20084;-67
2022/11/20 01:47:53;;;;;;;18.90;9.40;;;;;;;-2.73;100.00;101308.06;5018521;28;20107;-67
2022/11/20 01:50:24;;;;;;;18.77;10.05;;;;;;;-2.67;100.00;101310.19;5025005;28;20034;-67
2022/11/20 01:52:57;;;;;;;20.60;9.90;;;;;;;-2.68;100.00;101304.94;5014444;28;20030;-68
2022/11/20 01:55:32;;;;;;;16.10;10.10;;;;;;;-2.74;100.00;101305.31;5027934;28;20030;-66
2022/11/20 01:57:58;;;;;;;22.27;9.32;;;;;;;-2.55;100.00;101299.91;5028670;28;20045;-67
2022/11/20 02:00:24;;;;;;;18.65;9.98;;;;;;;-2.60;100.00;101306.41;5018492;28;20406;-67
2022/11/20 02:03:03;;;;;;;18.75;10.35;;;;;;;-2.64;100.00;101302.69;5022541;28;20029;-68
2022/11/20 02:05:41;;;;;;;19.08;9.32;;;;;;;-2.72;100.00;101302.09;5030323;28;20029;-68
2022/11/20 02:08:07;;;;;;;19.95;8.68;;;;;;;-2.73;100.00;101313.19;5025016;28;20029;-67
2022/11/20 02:10:34;;;;;;;16.27;8.55;;;;;;;-2.79;100.00;101312.72;5012804;28;20075;-67
2022/11/20 02:15:44;;;;;;;;;;;;;;;-2.85;100.00;101313.91;5014761;28;20091;-69
2022/11/20 02:18:13;;;;;;;17.30;7.05;;;;;;;-2.98;100.00;101317.22;5019111;28;19996;-67
2022/11/20 02:20:41;;;;;;;18.60;8.93;;;;;;;-3.00;100.00;101318.75;5033592;28;20457;-68
2022/11/20 02:23:33;;;;;;;21.27;9.02;;;;;;;-2.96;100.00;101310.50;5029634;28;20037;-67
2022/11/20 02:26:03;;;;;;;18.65;10.13;;;;;;;-2.90;100.00;101316.13;5013903;28;20033;-68
2022/11/20 02:28:28;;;;;;;18.23;9.07;;;;;;;-2.82;100.00;101312.47;5013958;28;20035;-66
2022/11/20 02:30:54;;;;;;;15.98;9.52;;;;;;;-2.93;100.00;101306.50;5030796;28;20108;-67
2022/11/20 02:33:19;;;;;;;16.15;9.43;;;;;;;-2.96;100.00;101300.19;5019386;28;20083;-68
2022/11/20 02:35:46;;;;;;;17.08;9.82;;;;;;;-2.87;100.00;101303.50;5014614;28;20026;-67
2022/11/20 02:38:13;;;;;;;18.92;9.90;;;;;;;-2.91;100.00;101301.47;5021848;28;20022;-67
2022/11/20 02:40:38;;;;;;;20.40;9.35;;;;;;;-2.77;100.00;101303.44;5026941;28;20405;-67
2022/11/20 02:43:04;;;;;;;16.40;9.35;;;;;;;-2.91;100.00;101294.63;5017215;28;20022;-66
2022/11/20 02:45:29;;;;;;;18.05;8.70;;;;;;;-2.99;100.00;101293.13;5014785;28;20488;-67
2022/11/20 02:47:54;;;;;;;16.58;9.00;;;;;;;-3.08;100.00;101283.03;5025541;28;20033;-68
2022/11/20 02:50:20;;;;;;;20.85;9.43;;;;;;;-3.01;100.00;101286.06;5026273;28;20028;-67
2022/11/20 02:52:46;;;;;;;20.90;9.88;;;;;;;-2.99;100.00;101282.81;5019334;28;20088;-68
2022/11/20 02:55:11;;;;;;;19.92;9.52;;;;;;;-3.11;100.00;101277.59;5013221;28;20375;-67
2022/11/20 02:57:36;;;;;;;18.08;8.95;;;;;;;-3.14;100.00;101273.91;5020713;28;20050;-67
2022/11/20 03:00:04;;;;;;;20.45;9.88;;;;;;;-3.09;100.00;101272.59;5016187;28;20083;-66
2022/11/20 03:02:30;;;;;;;18.13;9.90;;;;;;;-3.14;100.00;101269.66;5027192;28;20057;-67
2022/11/20 03:04:56;;;;;;;15.68;8.95;;;;;;;-3.19;100.00;101267.50;5014900;28;20112;-67
2022/11/20 03:07:22;;;;;;;18.55;9.32;;;;;;;-3.02;100.00;101264.56;5024348;28;20053;-67
2022/11/20 03:09:49;;;;;;;19.75;10.15;;;;;;;-2.89;100.00;101263.84;5016820;28;20025;-68
2022/11/20 03:12:15;;;;;;;16.42;9.63;;;;;;;-3.02;100.00;101264.56;5016457;28;20072;-68
2022/11/20 03:14:40;;;;;;;18.83;10.98;;;;;;;-3.09;100.00;101258.06;5024843;28;20401;-68
2022/11/20 03:17:06;;;;;;;17.00;8.68;;;;;;;-3.06;100.00;101245.41;5027897;28;20021;-68
2022/11/20 03:19:31;;;;;;;19.70;10.27;;;;;;;-2.93;100.00;101234.41;5013109;28;20088;-65
2022/11/20 03:21:57;;;;;;;19.13;10.35;;;;;;;-2.96;100.00;101233.25;5013382;28;20446;-67
2022/11/20 03:24:22;;;;;;;16.90;9.27;;;;;;;-2.88;100.00;101245.97;5032720;28;20025;-68
2022/11/20 03:26:48;;;;;;;16.90;9.60;;;;;;;-3.03;100.00;101244.75;5025806;28;20022;-68
2022/11/20 03:29:13;;;;;;;22.67;9.98;;;;;;;-2.94;100.00;101247.16;5030066;28;20109;-67
2022/11/20 03:31:40;;;;;;;22.30;10.18;;;;;;;-3.01;100.00;101247.44;5027504;28;20022;-66
2022/11/20 03:34:07;;;;;;;19.67;9.82;;;;;;;-3.03;100.00;101247.31;5017262;28;20029;-67
2022/11/20 03:36:33;;;;;;;20.20;10.50;;;;;;;-3.16;100.00;101240.34;5031124;28;20041;-67
2022/11/20 03:38:59;;;;;;;19.52;10.27;;;;;;;-3.23;100.00;101235.47;5028874;28;20452;-67
2022/11/20 03:41:30;;;;;;;19.58;9.82;;;;;;;-3.27;100.00;101230.88;5022052;28;20109;-68
2022/11/20 03:44:01;;;;;;;15.30;9.10;;;;;;;-3.29;100.00;101227.28;5018255;28;20116;-67
2022/11/20 03:46:27;;;;;;;22.10;10.45;;;;;;;-3.29;100.00;101227.28;5020404;28;20566;-68
2022/11/20 03:48:53;;;;;;;20.35;9.50;;;;;;;-3.30;100.00;101220.34;5031584;28;20095;-68
2022/11/20 03:51:21;;;;;;;15.57;9.00;;;;;;;-3.30;100.00;101221.22;5032267;28;20404;-68
2022/11/20 03:53:48;;;;;;;18.35;9.02;;;;;;;-3.29;100.00;101217.00;5017158;28;20034;-68
2022/11/20 03:56:16;;;;;;;20.45;9.85;;;;;;;-3.30;100.00;101220.34;5015096;28;20085;-67
2022/11/20 03:58:42;;;;;;;18.63;9.43;;;;;;;-3.30;100.00;101225.50;5015927;28;20041;-67
2022/11/20 04:01:10;;;;;;;22.42;9.57;;;;;;;-3.30;100.00;101220.34;5014054;28;20057;-66
2022/11/20 04:03:36;;;;;;;18.13;10.60;;;;;;;-3.30;100.00;101220.34;5019963;28;20088;-67
2022/11/20 04:06:06;;;;;;;20.88;9.98;;;;;;;-3.34;100.00;101208.00;5016894;28;20032;-67
2022/11/20 04:08:31;;;;;;;21.05;10.38;;;;;;;-3.39;100.00;101199.94;5026777;28;20037;-67
2022/11/20 04:10:56;;;;;;;25.42;10.25;;;;;;;-3.34;100.00;101190.00;5035433;28;20028;-68
2022/11/20 04:13:22;;;;;;;19.80;10.95;;;;;;;-3.28;100.00;101177.63;5017812;28;20029;-67
2022/11/20 04:15:47;;;;;;;18.67;8.95;;;;;;;-3.25;100.00;101180.44;5026591;28;20041;-67
2022/11/20 04:18:12;;;;;;;23.27;11.15;;;;;;;-3.28;100.00;101177.63;5031690;28;20075;-68
2022/11/20 04:20:38;;;;;;;19.00;9.57;;;;;;;-3.30;100.00;101184.31;5019690;28;20088;-67
2022/11/20 04:23:03;;;;;;;22.80;10.77;;;;;;;-3.31;100.00;101175.72;5024853;28;20034;-66
2022/11/20 04:25:28;;;;;;;18.90;9.75;;;;;;;-3.24;100.00;101174.50;5015769;28;20030;-67
2022/11/20 04:27:54;;;;;;;21.00;10.68;;;;;;;-3.23;100.00;101171.13;5020239;28;20030;-68
2022/11/20 04:30:19;;;;;;;20.27;9.98;;;;;;;-3.24;100.00;101179.66;5028729;28;20075;-66
2022/11/20 04:32:45;;;;;;;23.10;10.65;;;;;;;-3.17;100.00;101171.63;5024557;28;20029;-67
2022/11/20 04:35:10;;;;;;;24.90;10.85;;;;;;;-3.17;100.00;101181.00;5025637;28;20025;-66
2022/11/20 04:37:35;;;;;;;21.55;11.25;;;;;;;-3.14;100.00;101182.13;5035200;28;20037;-67
2022/11/20 04:40:01;;;;;;;21.80;10.43;;;;;;;-3.14;100.00;101186.41;5034116;28;20033;-68
2022/11/20 04:42:29;;;;;;;20.13;9.90;;;;;;;-3.14;100.00;101177.00;5027436;28;20033;-67
2022/11/20 04:44:54;;;;;;;21.00;9.63;;;;;;;-3.13;100.00;101183.94;5020145;28;20021;-67
2022/11/20 04:47:20;;;;;;;22.45;11.63;;;;;;;-3.17;100.00;101171.63;5015876;28;20133;-66
2022/11/20 04:49:46;;;;;;;23.02;11.75;;;;;;;-3.23;100.00;101176.28;5015704;28;20076;-66
2022/11/20 04:52:11;;;;;;;16.15;9.25;;;;;;;-3.21;100.00;101187.59;5032518;28;20095;-67
2022/11/20 04:54:37;;;;;;;20.45;9.88;;;;;;;-3.15;100.00;101182.03;5034253;28;20021;-66
2022/11/20 04:57:02;;;;;;;18.85;9.70;;;;;;;-3.13;100.00;101181.38;5023469;28;20060;-68
2022/11/20 04:59:27;;;;;;;19.73;10.15;;;;;;;-3.14;100.00;101176.09;5016619;28;20030;-68
2022/11/20 05:01:53;;;;;;;21.60;10.68;;;;;;;-3.17;100.00;101171.63;5022262;28;20026;-67
2022/11/20 05:04:18;;;;;;;23.23;10.85;;;;;;;-3.13;100.00;101167.63;5029520;28;20083;-67
2022/11/20 05:06:45;;;;;;;23.35;11.15;;;;;;;-3.14;100.00;101171.84;5019108;28;20028;-67
2022/11/20 05:09:10;;;;;;;22.33;9.70;;;;;;;-3.19;100.00;101178.31;5018017;28;20018;-67
2022/11/20 05:11:36;;;;;;;20.15;10.27;;;;;;;-3.24;100.00;101184.81;5013943;28;20390;-68
2022/11/20 05:14:01;;;;;;;20.95;10.88;;;;;;;-3.29;100.00;101187.00;5015386;28;20049;-67
2022/11/20 05:16:26;;;;;;;21.20;10.73;;;;;;;-3.26;100.00;101183.78;5032159;28;20041;-66
2022/11/20 05:18:54;;;;;;;21.83;10.20;;;;;;;-3.26;100.00;101191.50;5027802;28;20026;-67
2022/11/20 05:21:20;;;;;;;23.10;10.02;;;;;;;-3.16;100.00;101194.00;5032204;28;20108;-68
2022/11/20 05:23:46;;;;;;;17.38;9.18;;;;;;;-3.28;100.00;101193.06;5024152;28;20034;-68
2022/11/20 05:26:14;;;;;;;19.88;10.75;;;;;;;-3.27;100.00;101194.84;5030494;28;20508;-67
2022/11/20 05:28:39;;;;;;;24.80;9.80;;;;;;;-3.23;100.00;101196.88;5034441;28;20025;-67
2022/11/20 05:31:14;;;;;;;16.95;10.65;;;;;;;-3.25;100.00;101183.00;5027688;28;20028;-68
2022/11/20 05:33:41;;;;;;;22.50;10.88;;;;;;;-3.23;100.00;101184.00;5014418;28;20473;-69
2022/11/20 05:36:06;;;;;;;23.70;10.95;;;;;;;-3.20;100.00;101176.53;5029035;28;20034;-66
2022/11/20 05:38:32;;;;;;;24.80;11.82;;;;;;;-3.00;100.00;101175.47;5023043;28;20033;-67
2022/11/20 05:41:04;;;;;;;22.30;11.30;;;;;;;-3.00;100.00;101169.44;5014607;28;20022;-68
2022/11/20 05:43:36;;;;;;;22.63;11.75;;;;;;;-3.03;100.00;101164.94;5018445;28;20063;-68
2022/11/20 05:46:02;;;;;;;28.80;11.73;;;;;;;-3.08;100.00;101156.88;5014521;28;20156;-67
2022/11/20 05:48:27;;;;;;;22.77;11.35;;;;;;;-3.12;100.00;101157.44;5024507;28;20469;-67
2022/11/20 05:50:52;;;;;;;21.60;11.30;;;;;;;-3.11;100.00;101156.63;5034103;28;20029;-68
2022/11/20 05:53:18;;;;;;;25.65;12.93;;;;;;;-3.12;100.00;101159.09;5033029;28;20034;-68
2022/11/20 05:55:43;;;;;;;22.40;11.60;;;;;;;-3.07;100.00;101168.06;5022662;28;20029;-68
2022/11/20 05:58:08;;;;;;;20.88;10.90;;;;;;;-3.03;100.00;101164.94;5014230;28;20046;-67
2022/11/20 06:00:34;;;;;;;20.80;11.80;;;;;;;-3.06;100.00;101155.31;5027549;28;20026;-68
2022/11/20 06:02:59;;;;;;;24.13;11.70;;;;;;;-3.06;100.00;101150.16;5017719;28;20048;-67
2022/11/20 06:05:24;;;;;;;19.30;10.80;;;;;;;-3.06;100.00;101144.13;5022721;28;20033;-67
2022/11/20 06:07:50;;;;;;;24.92;11.48;;;;;;;-3.01;100.00;101145.38;5026638;28;20091;-67
2022/11/20 06:10:15;;;;;;;24.55;11.77;;;;;;;-3.00;100.00;101133.41;5019179;28;20060;-67
2022/11/20 06:12:40;;;;;;;24.45;12.32;;;;;;;-2.93;100.00;101135.63;5027180;28;20028;-67
2022/11/20 06:15:06;;;;;;;35.30;12.40;;;;;;;-2.93;100.00;101133.06;5030636;28;20026;-67
2022/11/20 06:17:31;;;;;;;26.88;11.18;;;;;;;-2.95;100.00;101132.06;5023938;28;20033;-67
2022/11/20 06:19:57;;;;;;;25.40;11.05;;;;;;;-2.95;100.00;101132.06;5033597;28;20065;-68
2022/11/20 06:22:22;;;;;;;27.42;11.98;;;;;;;-2.96;100.00;101125.13;5023699;28;20077;-67
2022/11/20 06:24:47;;;;;;;25.50;11.45;;;;;;;-2.89;100.00;101124.78;5021422;28;20032;-68
2022/11/20 06:27:13;;;;;;;23.92;11.65;;;;;;;-2.87;100.00;101125.81;5012458;28;20026;-66
2022/11/20 06:29:38;;;;;;;24.98;11.07;;;;;;;-2.88;100.00;101124.94;5018229;28;20022;-69
2022/11/20 06:32:04;;;;;;;23.20;11.80;;;;;;;-2.87;100.00;101120.66;5029297;28;20079;-67
2022/11/20 06:34:29;;;;;;;27.27;11.80;;;;;;;-2.81;100.00;101126.25;4999646;28;20034;-67
2022/11/20 06:36:54;;;;;;;21.23;11.52;;;;;;;-2.81;100.00;101125.38;5014428;28;20327;-67
2022/11/20 06:39:19;;;;;;;22.02;11.98;;;;;;;-2.80;100.00;101120.34;5024113;28;20036;-67
2022/11/20 06:41:45;;;;;;;21.95;10.13;;;;;;;-2.77;100.00;101120.59;5015392;28;20049;-66
2022/11/20 06:44:10;;;;;;;24.25;11.85;;;;;;;-2.77;100.00;101112.84;5031119;28;20117;-67
2022/11/20 06:46:35;;;;;;;23.65;11.15;;;;;;;-2.79;100.00;101111.81;5022305;28;20029;-67
2022/11/20 06:49:01;;;;;;;23.85;11.82;;;;;;;-2.78;100.00;101116.22;5017695;28;20036;-67
2022/11/20 06:51:26;;;;;;;26.10;11.70;;;;;;;-2.74;100.00;101114.72;5013273;28;20017;-68
2022/11/20 06:53:51;;;;;;;26.77;11.73;;;;;;;-2.74;100.00;101102.78;5031311;28;20078;-67
2022/11/20 06:56:17;;;;;;;23.70;13.00;;;;;;;-2.66;100.00;101099.84;5027272;28;20057;-67
2022/11/20 06:58:42;;;;;;;24.50;11.85;;;;;;;-2.65;100.00;101097.38;5013130;28;20053;-67
2022/11/20 07:01:12;;;;;;;22.42;12.20;;;;;;;-2.67;100.00;101103.19;5014424;28;20669;-68
2022/11/20 07:03:38;;;;;;;22.23;12.63;;;;;;;-2.64;100.00;101103.47;5024363;28;20420;-67
2022/11/20 07:06:04;;;;;;;21.92;12.40;;;;;;;-2.62;100.00;101091.56;5015579;28;20029;-67
2022/11/20 07:08:29;;;;;;;25.40;13.50;;;;;;;-2.58;100.00;101102.22;5025867;28;20057;-67
2022/11/20 07:11:04;;;;;;;20.55;11.50;;;;;;;-2.54;100.00;101103.31;5012836;28;20421;-67
2022/11/20 07:13:30;;;;;;;25.05;12.18;;;;;;;-2.54;100.00;101105.91;5017165;28;20033;-67
2022/11/20 07:16:00;;;;;;;24.98;12.10;;;;;;;-2.51;100.00;101100.09;5028706;28;20027;-67
2022/11/20 07:18:26;;;;;;;20.98;11.43;;;;;;;-2.47;100.00;101103.00;5030943;28;20030;-67
2022/11/20 07:20:51;;;;;;;26.65;13.07;;;;;;;-2.47;100.00;101097.88;5019570;28;20095;-68
2022/11/20 07:23:16;;;;;;;24.38;11.68;;;;;;;-2.41;100.00;101102.56;5026583;28;20033;-68
2022/11/20 07:25:42;;;;;;;22.38;12.15;;;;;;;-2.38;100.00;101103.66;5016783;28;20113;-67
2022/11/20 07:28:07;;;;;;;26.00;13.23;;;;;;;-2.36;100.00;101108.94;5012974;28;20052;-67
2022/11/20 07:30:33;;;;;;;23.73;11.45;;;;;;;-2.33;100.00;101111.75;5030785;28;20484;-68
2022/11/20 07:32:58;;;;;;;21.98;12.13;;;;;;;-2.29;100.00;101107.69;5018006;28;20033;-68
2022/11/20 07:35:24;;;;;;;22.85;12.63;;;;;;;-2.24;100.00;101101.19;5023074;28;20033;-69
2022/11/20 07:37:50;;;;;;;21.40;11.32;;;;;;;-2.23;100.00;101095.25;5031230;28;20025;-68
2022/11/20 07:40:16;;;;;;;24.20;12.25;;;;;;;-2.20;100.00;101103.19;5032465;28;20365;-67
2022/11/20 07:42:49;;;;;;;35.47;12.50;;;;;;;-2.16;100.00;101104.31;5033204;28;20110;-68
2022/11/20 07:45:15;;;;;;;22.33;12.18;;;;;;;-2.15;100.00;101106.13;5024029;28;20079;-68
2022/11/20 07:47:40;;;;;;;24.55;12.30;;;;;;;-2.13;100.00;101105.44;5023753;28;20026;-67
2022/11/20 07:50:07;;;;;;;20.63;10.48;;;;;;;-2.10;100.00;101107.38;5024509;28;20052;-67
2022/11/20 07:52:32;;;;;;;24.13;12.02;;;;;;;-2.09;100.00;101097.16;5020107;28;20379;-66
2022/11/20 07:54:57;;;;;;;27.67;13.15;;;;;;;-2.03;100.00;101101.84;5038735;28;20155;-68
2022/11/20 07:57:23;;;;;;;22.38;12.32;;;;;;;-1.99;100.00;101105.50;5017011;28;20125;-68
2022/11/20 07:59:48;;;;;;;24.58;12.50;;;;;;;-1.95;100.00;101113.59;5017272;28;20026;-68
2022/11/20 08:02:13;;;;;;;25.58;11.95;;;;;;;-1.92;100.00;101112.94;5015082;28;20041;-68
2022/11/20 08:04:39;;;;;;;24.85;12.50;;;;;;;-1.92;100.00;101112.94;5018192;28;20493;-67
2022/11/20 08:07:04;;;;;;;28.88;12.20;;;;;;;-1.90;100.00;101113.91;5033146;28;20030;-67
2022/11/20 08:09:29;;;;;;;23.83;13.05;;;;;;;-1.88;100.00;101115.81;5044218;28;20047;-68
2022/11/20 08:14:39;;;;;;;25.27;13.05;;;;;;;-1.84;100.00;101106.63;5041916;28;20040;-68
2022/11/20 08:17:05;;;;;;;31.90;14.70;;;;;;;-1.80;100.00;101100.88;5035670;28;20478;-67
2022/11/20 08:19:30;;;;;;;26.58;13.23;;;;;;;-1.77;100.00;101090.78;5038647;28;21913;-67
2022/11/20 08:21:55;;;;;;;27.25;13.02;;;;;;;-1.73;100.00;101090.19;5048107;28;20469;-68
2022/11/20 08:24:21;;;;;;;21.65;13.73;;;;;;;-1.73;100.00;101090.19;5037311;28;20099;-66
2022/11/20 08:26:46;;;;;;;29.00;15.40;;;;;;;-1.72;100.00;101093.69;5044201;28;20050;-67
2022/11/20 08:29:12;;;;;;;30.70;14.57;;;;;;;-1.68;100.00;101097.38;5043248;28;20025;-68
2022/11/20 08:31:37;;;;;;;29.25;13.80;;;;;;;-1.64;100.00;101092.53;5038215;28;20064;-68
2022/11/20 08:34:03;;;;;;;26.08;13.05;;;;;;;-1.58;100.00;101089.50;5031203;28;20021;-67
2022/11/20 08:36:28;;;;;;;27.17;14.30;;;;;;;-1.52;100.00;101082.16;5039263;28;20366;-67
2022/11/20 08:38:55;;;;;;;25.80;13.13;;;;;;;-1.50;100.00;101085.75;5040972;28;20076;-68
2022/11/20 08:41:25;;;;;;;26.85;14.23;;;;;;;-1.47;100.00;101085.94;5040707;28;20060;-67
2022/11/20 08:43:52;;;;;;;28.77;14.38;;;;;;;-1.44;100.00;101077.53;5038261;28;20029;-66
2022/11/20 08:46:17;;;;;;;27.10;14.38;;;;;;;-1.40;100.00;101087.28;5042537;28;20036;-67
2022/11/20 08:48:45;;;;;;;23.58;14.10;;;;;;;-1.37;100.00;101088.38;5044840;28;20036;-68
2022/11/20 08:51:11;;;;;;;27.77;13.85;;;;;;;-1.30;100.00;101086.22;5045974;28;20036;-67
2022/11/20 08:53:37;;;;;;;28.05;13.02;;;;;;;-1.23;100.00;101083.28;5043941;28;20021;-67
2022/11/20 08:56:03;;;;;;;25.55;13.98;;;;;;;-1.18;100.00;101084.50;5044255;28;20061;-67
2022/11/20 08:58:28;;;;;;;29.48;14.30;;;;;;;-1.12;100.00;101077.13;5046028;28;20449;-66
2022/11/20 09:00:53;;;;;;;24.00;13.50;;;;;;;-1.06;100.00;101090.47;5045618;28;20120;-66
2022/11/20 09:03:20;;;;;;;28.88;13.95;;;;;;;-0.99;100.00;101085.69;5045427;28;20072;-66
2022/11/20 09:05:45;;;;;;;23.58;12.75;;;;;;;-0.95;100.00;101092.88;5034416;28;20517;-68
2022/11/20 09:08:11;;;;;;;25.73;13.25;;;;;;;-0.92;100.00;101086.22;5020300;28;20037;-68
2022/11/20 09:10:39;;;;;;;23.20;13.43;;;;;;;-0.91;100.00;101079.34;5024474;28;20469;-67
2022/11/20 09:13:05;;;;;;;23.73;13.95;;;;;;;-0.88;100.00;101069.25;5026489;28;20036;-68
2022/11/20 09:15:30;;;;;;;27.55;13.23;;;;;;;-0.85;100.00;101070.31;5017520;28;20030;-67
2022/11/20 09:18:00;;;;;;;21.95;13.13;;;;;;;-0.81;100.00;101061.09;5021586;28;20025;-67
2022/11/20 09:20:28;;;;;;;22.42;13.68;;;;;;;-0.80;100.00;101065.47;5029172;28;20087;-67
2022/11/20 09:22:53;;;;;;;22.63;13.82;;;;;;;-0.78;100.00;101055.25;5028441;28;20059;-68
2022/11/20 09:25:19;;;;;;;35.97;14.35;;;;;;;-0.77;100.00;101047.59;5030225;28;20038;-67
2022/11/20 09:27:45;;;;;;;21.77;12.52;;;;;;;-0.73;100.00;101051.28;5027163;28;20090;-67
2022/11/20 09:30:12;;;;;;;24.23;14.07;;;;;;;-0.65;100.00;101042.34;5024424;28;20032;-68
2022/11/20 09:32:41;;;;;;;26.75;14.48;;;;;;;-0.63;100.00;101034.69;5015940;28;20026;-66
2022/11/20 09:35:07;;;;;;;27.08;13.93;;;;;;;-0.58;100.00;101028.13;5019872;28;20458;-68
2022/11/20 09:37:33;;;;;;;26.83;14.88;;;;;;;-0.56;100.00;101032.56;5023944;28;20013;-68
2022/11/20 09:39:58;;;;;;;25.15;14.60;;;;;;;-0.53;100.00;101026.69;5027292;28;20036;-67
2022/11/20 09:42:32;;;;;;;27.70;14.35;;;;;;;-0.48;100.00;101020.13;5019706;28;20022;-67
2022/11/20 09:45:15;;;;;;;26.80;14.18;;;;;;;-0.41;100.00;101022.31;5023021;28;20108;-68
2022/11/20 09:47:59;;;;;;;28.97;14.67;;;;;;;-0.36;100.00;101015.75;5015045;28;20386;-69
2022/11/20 09:50:47;;;;;;;27.58;14.95;;;;;;;-0.30;100.00;101014.34;5032432;28;20045;-68
2022/11/20 09:53:34;;;;;;;24.73;14.48;;;;;;;-0.30;100.00;101014.34;5024654;28;20930;-68
2022/11/20 09:56:02;;;;;;;27.70;14.20;;;;;;;-0.26;100.00;101008.56;5033836;28;20029;-66
2022/11/20 09:59:04;;;;;;;25.60;15.20;;;;;;;-0.21;100.00;101007.19;5028161;28;20100;-67
2022/11/20 10:01:34;;;;;;;28.15;14.68;;;;;;;-0.19;100.00;100998.72;5003791;28;20091;-67
2022/11/20 10:04:33;;;;;;;25.67;14.93;;;;;;;-0.12;100.00;100987.06;5019409;28;20512;-66
2022/11/20 10:07:13;;;;;;;28.92;14.32;;;;;;;-0.10;100.00;100979.41;5015690;28;20059;-66
2022/11/20 10:09:43;;;;;;;27.75;14.30;;;;;;;-0.09;100.00;100971.72;5038081;28;20488;-66
2022/11/20 10:12:17;;;;;;;26.40;15.07;;;;;;;-0.04;100.00;100967.72;5035279;28;20025;-67
2022/11/20 10:14:42;;;;;;;;;;;;;;;-0.02;100.00;100963.53;5035472;28;20090;-66
2022/11/20 10:17:44;;;;;;;25.48;14.57;;;;;;;-0.01;100.00;100957.56;5037554;28;19999;-65
2022/11/20 10:20:42;;;;;;;30.55;14.93;;;;;;;0.05;100.00;100950.97;5035161;28;20026;-67
2022/11/20 10:23:52;;;;;;;27.42;15.10;;;;;;;0.07;100.00;100944.19;5033121;28;20039;-66
2022/11/20 10:26:40;;;;;;;27.10;15.07;;;;;;;0.10;100.00;100934.06;5030101;28;20037;-67
2022/11/20 10:29:17;;;;;;;27.73;14.77;;;;;;;0.10;100.00;100928.88;5029552;28;20091;-68
2022/11/20 10:31:50;;;;;;;32.75;18.27;;;;;;;0.12;100.00;100922.09;5038997;28;20021;-67
2022/11/20 10:34:29;;;;;;;37.40;17.30;;;;;;;0.15;100.00;100911.94;5031186;28;20021;-67
2022/11/20 10:36:59;;;;;;;31.40;17.60;;;;;;;0.20;100.00;100905.31;5018303;28;20038;-67
2022/11/20 10:39:28;;;;;;;33.17;16.85;;;;;;;0.27;100.00;100901.41;5035047;28;20021;-67
2022/11/20 10:41:54;;;;;;;37.03;17.38;;;;;;;0.32;100.00;100899.97;5046294;28;20418;-69
2022/11/20 10:47:13;;;;;;;31.10;16.83;;;;;;;0.42;100.00;100885.88;5015021;28;20046;-68
2022/11/20 10:49:40;;;;;;;31.65;17.75;;;;;;;0.42;100.00;100891.97;5038264;28;20027;-68
2022/11/20 10:52:16;;;;;;;30.73;16.58;;;;;;;0.42;100.00;100881.59;5045808;28;20396;-67
2022/11/20 10:54:56;;;;;;;33.10;17.95;;;;;;;0.45;100.00;100884.38;5024100;28;20021;-68
2022/11/20 10:57:54;;;;;;;39.97;19.25;;;;;;;0.49;100.00;100882.84;5024856;28;20073;-68
2022/11/20 11:00:19;;;;;;;33.50;18.17;;;;;;;0.47;100.00;100880.16;5037320;28;20037;-67
2022/11/20 11:02:53;;;;;;;37.33;17.50;;;;;;;0.49;100.00;100875.09;5026250;28;20037;-67
2022/11/20 11:05:39;;;;;;;39.30;19.38;;;;;;;0.53;100.00;100869.28;5017979;28;20072;-68
2022/11/20 11:08:12;;;;;;;40.63;18.02;;;;;;;0.58;100.00;100866.94;5025089;28;20048;-69
2022/11/20 11:10:57;;;;;;;31.65;18.80;;;;;;;0.63;100.00;100856.03;5029386;28;20100;-67
2022/11/20 11:13:29;;;;;;;41.88;19.23;;;;;;;0.66;100.00;100845.88;5024721;28;20045;-68
2022/11/20 11:15:55;;;;;;;37.65;21.00;;;;;;;0.71;100.00;100843.53;5029846;28;20025;-68
2022/11/20 11:18:29;;;;;;;41.20;19.20;;;;;;;0.77;100.00;100832.63;5025671;28;20037;-67
2022/11/20 11:20:56;;;;;;;44.80;21.38;;;;;;;0.79;100.00;100820.66;5031729;28;20063;-68